sensor_id;sensor_type;location;lat;lon;timestamp;P1;durP1;ratioP1;P2;durP2;ratioP2
25015;SDS011;13029;46.286;7.488;2023-04-15T00:01:54;0.93;;;0.50;;
25015;SDS011;13029;46.286;7.488;2023-04-15T00:04:19;1.20;;;0.60;;
25015;SDS011;13029;46.286;7.488;2023-04-15T00:06:50;2.42;;;0.70;;
25015;SDS011;13029;46.286;7.488;2023-04-15T00:09:19;0.55;;;0.47;;
25015;SDS011;13029;46.286;7.488;2023-04-15T00:11:45;3.15;;;1.20;;
25015;SDS011;13029;46.286;7.488;2023-04-15T00:14:11;1.17;;;0.52;;
25015;SDS011;13029;46.286;7.488;2023-04-15T00:16:37;0.85;;;0.50;;
25015;SDS011;13029;46.286;7.488;2023-04-15T00:19:02;1.60;;;0.82;;
25015;SDS011;13029;46.286;7.488;2023-04-15T00:21:27;1.33;;;0.52;;
25015;SDS011;13029;46.286;7.488;2023-04-15T00:23:53;2.80;;;0.75;;
25015;SDS011;13029;46.286;7.488;2023-04-15T00:26:19;2.08;;;0.57;;
25015;SDS011;13029;46.286;7.488;2023-04-15T00:28:44;2.53;;;0.80;;
25015;SDS011;13029;46.286;7.488;2023-04-15T00:31:10;2.10;;;0.90;;
25015;SDS011;13029;46.286;7.488;2023-04-15T00:33:35;1.75;;;0.70;;
25015;SDS011;13029;46.286;7.488;2023-04-15T00:36:01;1.52;;;0.70;;
25015;SDS011;13029;46.286;7.488;2023-04-15T00:38:27;1.58;;;0.77;;
25015;SDS011;13029;46.286;7.488;2023-04-15T00:40:53;1.25;;;0.60;;
25015;SDS011;13029;46.286;7.488;2023-04-15T00:43:19;1.38;;;0.70;;
25015;SDS011;13029;46.286;7.488;2023-04-15T00:45:44;2.97;;;0.77;;
25015;SDS011;13029;46.286;7.488;2023-04-15T00:48:11;1.95;;;0.73;;
25015;SDS011;13029;46.286;7.488;2023-04-15T00:50:36;1.77;;;0.70;;
25015;SDS011;13029;46.286;7.488;2023-04-15T00:53:01;1.77;;;0.75;;
25015;SDS011;13029;46.286;7.488;2023-04-15T00:55:27;3.75;;;0.90;;
25015;SDS011;13029;46.286;7.488;2023-04-15T00:57:52;2.50;;;0.80;;
25015;SDS011;13029;46.286;7.488;2023-04-15T01:00:17;4.38;;;0.63;;
25015;SDS011;13029;46.286;7.488;2023-04-15T01:02:44;4.60;;;0.95;;
25015;SDS011;13029;46.286;7.488;2023-04-15T01:05:10;1.30;;;0.60;;
25015;SDS011;13029;46.286;7.488;2023-04-15T01:07:35;1.73;;;0.68;;
25015;SDS011;13029;46.286;7.488;2023-04-15T01:10:01;2.58;;;0.77;;
25015;SDS011;13029;46.286;7.488;2023-04-15T01:12:27;3.90;;;0.73;;
25015;SDS011;13029;46.286;7.488;2023-04-15T01:14:53;2.25;;;0.82;;
25015;SDS011;13029;46.286;7.488;2023-04-15T01:17:19;3.00;;;1.00;;
25015;SDS011;13029;46.286;7.488;2023-04-15T01:19:45;2.50;;;0.95;;
25015;SDS011;13029;46.286;7.488;2023-04-15T01:22:11;1.17;;;0.70;;
25015;SDS011;13029;46.286;7.488;2023-04-15T01:24:36;3.28;;;0.73;;
25015;SDS011;13029;46.286;7.488;2023-04-15T01:27:02;2.25;;;0.63;;
25015;SDS011;13029;46.286;7.488;2023-04-15T01:29:29;2.17;;;0.80;;
25015;SDS011;13029;46.286;7.488;2023-04-15T01:31:56;1.15;;;0.63;;
25015;SDS011;13029;46.286;7.488;2023-04-15T01:34:21;2.45;;;0.93;;
25015;SDS011;13029;46.286;7.488;2023-04-15T01:36:47;1.95;;;0.50;;
25015;SDS011;13029;46.286;7.488;2023-04-15T01:39:12;1.58;;;0.60;;
25015;SDS011;13029;46.286;7.488;2023-04-15T01:41:38;2.17;;;0.73;;
25015;SDS011;13029;46.286;7.488;2023-04-15T01:44:05;3.08;;;0.73;;
25015;SDS011;13029;46.286;7.488;2023-04-15T01:46:32;2.65;;;0.90;;
25015;SDS011;13029;46.286;7.488;2023-04-15T01:48:57;0.98;;;0.70;;
25015;SDS011;13029;46.286;7.488;2023-04-15T01:51:22;3.90;;;0.60;;
25015;SDS011;13029;46.286;7.488;2023-04-15T01:53:47;2.92;;;0.70;;
25015;SDS011;13029;46.286;7.488;2023-04-15T01:56:13;2.53;;;0.77;;
25015;SDS011;13029;46.286;7.488;2023-04-15T01:58:38;0.95;;;0.68;;
25015;SDS011;13029;46.286;7.488;2023-04-15T02:01:04;1.30;;;0.65;;
25015;SDS011;13029;46.286;7.488;2023-04-15T02:03:30;2.22;;;0.60;;
25015;SDS011;13029;46.286;7.488;2023-04-15T02:05:55;2.13;;;0.63;;
25015;SDS011;13029;46.286;7.488;2023-04-15T02:08:20;0.50;;;0.50;;
25015;SDS011;13029;46.286;7.488;2023-04-15T02:10:46;0.80;;;0.52;;
25015;SDS011;13029;46.286;7.488;2023-04-15T02:13:12;2.10;;;0.50;;
25015;SDS011;13029;46.286;7.488;2023-04-15T02:15:37;1.52;;;0.57;;
25015;SDS011;13029;46.286;7.488;2023-04-15T02:18:03;1.95;;;0.65;;
25015;SDS011;13029;46.286;7.488;2023-04-15T02:20:28;2.38;;;0.60;;
25015;SDS011;13029;46.286;7.488;2023-04-15T02:22:56;1.90;;;0.60;;
25015;SDS011;13029;46.286;7.488;2023-04-15T02:25:22;1.63;;;0.60;;
25015;SDS011;13029;46.286;7.488;2023-04-15T02:27:47;1.70;;;0.60;;
25015;SDS011;13029;46.286;7.488;2023-04-15T02:30:13;2.72;;;0.60;;
25015;SDS011;13029;46.286;7.488;2023-04-15T02:32:39;0.85;;;0.50;;
25015;SDS011;13029;46.286;7.488;2023-04-15T02:35:05;1.23;;;0.82;;
25015;SDS011;13029;46.286;7.488;2023-04-15T02:37:31;0.82;;;0.60;;
25015;SDS011;13029;46.286;7.488;2023-04-15T02:40:00;0.90;;;0.40;;
25015;SDS011;13029;46.286;7.488;2023-04-15T02:42:26;1.77;;;0.80;;
25015;SDS011;13029;46.286;7.488;2023-04-15T02:44:54;1.63;;;0.85;;
25015;SDS011;13029;46.286;7.488;2023-04-15T02:47:20;3.60;;;1.00;;
25015;SDS011;13029;46.286;7.488;2023-04-15T02:49:45;1.52;;;0.73;;
25015;SDS011;13029;46.286;7.488;2023-04-15T02:52:10;3.28;;;1.02;;
25015;SDS011;13029;46.286;7.488;2023-04-15T02:54:36;1.33;;;0.90;;
25015;SDS011;13029;46.286;7.488;2023-04-15T02:57:01;1.70;;;0.60;;
25015;SDS011;13029;46.286;7.488;2023-04-15T02:59:27;0.88;;;0.70;;
25015;SDS011;13029;46.286;7.488;2023-04-15T03:01:53;1.92;;;0.77;;
25015;SDS011;13029;46.286;7.488;2023-04-15T03:04:20;4.10;;;1.40;;
25015;SDS011;13029;46.286;7.488;2023-04-15T03:06:45;1.45;;;0.63;;
25015;SDS011;13029;46.286;7.488;2023-04-15T03:09:11;1.73;;;0.70;;
25015;SDS011;13029;46.286;7.488;2023-04-15T03:11:37;1.27;;;0.70;;
25015;SDS011;13029;46.286;7.488;2023-04-15T03:14:04;3.47;;;0.90;;
25015;SDS011;13029;46.286;7.488;2023-04-15T03:16:30;2.38;;;0.60;;
25015;SDS011;13029;46.286;7.488;2023-04-15T03:18:55;6.15;;;0.82;;
25015;SDS011;13029;46.286;7.488;2023-04-15T03:21:20;3.20;;;0.85;;
25015;SDS011;13029;46.286;7.488;2023-04-15T03:23:46;2.10;;;0.70;;
25015;SDS011;13029;46.286;7.488;2023-04-15T03:26:22;1.50;;;0.63;;
25015;SDS011;13029;46.286;7.488;2023-04-15T03:28:48;2.85;;;0.80;;
25015;SDS011;13029;46.286;7.488;2023-04-15T03:31:13;1.00;;;0.60;;
25015;SDS011;13029;46.286;7.488;2023-04-15T03:33:39;1.83;;;0.90;;
25015;SDS011;13029;46.286;7.488;2023-04-15T03:36:04;1.98;;;1.00;;
25015;SDS011;13029;46.286;7.488;2023-04-15T03:38:30;2.08;;;0.82;;
25015;SDS011;13029;46.286;7.488;2023-04-15T03:40:55;3.22;;;0.93;;
25015;SDS011;13029;46.286;7.488;2023-04-15T03:43:21;1.80;;;1.00;;
25015;SDS011;13029;46.286;7.488;2023-04-15T03:45:46;2.15;;;0.85;;
25015;SDS011;13029;46.286;7.488;2023-04-15T03:48:11;6.43;;;0.82;;
25015;SDS011;13029;46.286;7.488;2023-04-15T03:50:36;3.97;;;0.95;;
25015;SDS011;13029;46.286;7.488;2023-04-15T03:53:02;1.25;;;0.60;;
25015;SDS011;13029;46.286;7.488;2023-04-15T03:55:27;4.45;;;1.02;;
25015;SDS011;13029;46.286;7.488;2023-04-15T03:57:52;1.67;;;0.90;;
25015;SDS011;13029;46.286;7.488;2023-04-15T04:00:18;2.72;;;0.88;;
25015;SDS011;13029;46.286;7.488;2023-04-15T04:02:43;1.70;;;1.00;;
25015;SDS011;13029;46.286;7.488;2023-04-15T04:05:09;1.52;;;0.80;;
25015;SDS011;13029;46.286;7.488;2023-04-15T04:07:35;2.70;;;1.10;;
25015;SDS011;13029;46.286;7.488;2023-04-15T04:10:01;1.52;;;0.98;;
25015;SDS011;13029;46.286;7.488;2023-04-15T04:12:27;1.35;;;0.70;;
25015;SDS011;13029;46.286;7.488;2023-04-15T04:14:53;2.72;;;0.80;;
25015;SDS011;13029;46.286;7.488;2023-04-15T04:17:18;3.60;;;0.70;;
25015;SDS011;13029;46.286;7.488;2023-04-15T04:19:43;3.38;;;0.90;;
25015;SDS011;13029;46.286;7.488;2023-04-15T04:22:09;4.20;;;0.93;;
25015;SDS011;13029;46.286;7.488;2023-04-15T04:24:34;1.50;;;0.80;;
25015;SDS011;13029;46.286;7.488;2023-04-15T04:26:59;3.50;;;1.00;;
25015;SDS011;13029;46.286;7.488;2023-04-15T04:29:25;0.90;;;0.80;;
25015;SDS011;13029;46.286;7.488;2023-04-15T04:31:50;3.83;;;1.00;;
25015;SDS011;13029;46.286;7.488;2023-04-15T04:34:16;2.58;;;0.80;;
25015;SDS011;13029;46.286;7.488;2023-04-15T04:36:41;1.70;;;0.70;;
25015;SDS011;13029;46.286;7.488;2023-04-15T04:39:07;1.92;;;0.70;;
25015;SDS011;13029;46.286;7.488;2023-04-15T04:41:32;1.90;;;0.90;;
25015;SDS011;13029;46.286;7.488;2023-04-15T04:43:57;3.70;;;0.90;;
25015;SDS011;13029;46.286;7.488;2023-04-15T04:46:22;3.33;;;0.85;;
25015;SDS011;13029;46.286;7.488;2023-04-15T04:48:48;2.03;;;0.80;;
25015;SDS011;13029;46.286;7.488;2023-04-15T04:51:13;1.60;;;0.82;;
25015;SDS011;13029;46.286;7.488;2023-04-15T04:53:39;2.72;;;1.05;;
25015;SDS011;13029;46.286;7.488;2023-04-15T04:56:04;1.42;;;0.80;;
25015;SDS011;13029;46.286;7.488;2023-04-15T04:58:30;1.55;;;0.80;;
25015;SDS011;13029;46.286;7.488;2023-04-15T05:00:55;2.05;;;1.00;;
25015;SDS011;13029;46.286;7.488;2023-04-15T05:03:20;2.30;;;0.88;;
25015;SDS011;13029;46.286;7.488;2023-04-15T05:05:46;9.77;;;1.67;;
25015;SDS011;13029;46.286;7.488;2023-04-15T05:08:13;2.90;;;1.00;;
25015;SDS011;13029;46.286;7.488;2023-04-15T05:10:38;2.88;;;0.80;;
25015;SDS011;13029;46.286;7.488;2023-04-15T05:13:04;2.22;;;0.80;;
25015;SDS011;13029;46.286;7.488;2023-04-15T05:15:29;1.40;;;0.90;;
25015;SDS011;13029;46.286;7.488;2023-04-15T05:17:54;2.88;;;0.90;;
25015;SDS011;13029;46.286;7.488;2023-04-15T05:20:19;2.75;;;0.80;;
25015;SDS011;13029;46.286;7.488;2023-04-15T05:22:45;4.07;;;0.93;;
25015;SDS011;13029;46.286;7.488;2023-04-15T05:25:10;2.65;;;1.10;;
25015;SDS011;13029;46.286;7.488;2023-04-15T05:27:35;1.70;;;1.00;;
25015;SDS011;13029;46.286;7.488;2023-04-15T05:30:01;1.17;;;1.02;;
25015;SDS011;13029;46.286;7.488;2023-04-15T05:32:26;3.58;;;1.00;;
25015;SDS011;13029;46.286;7.488;2023-04-15T05:34:51;1.60;;;0.95;;
25015;SDS011;13029;46.286;7.488;2023-04-15T05:37:17;1.38;;;0.82;;
25015;SDS011;13029;46.286;7.488;2023-04-15T05:39:44;1.40;;;0.90;;
25015;SDS011;13029;46.286;7.488;2023-04-15T05:42:10;1.60;;;0.93;;
25015;SDS011;13029;46.286;7.488;2023-04-15T05:44:36;2.40;;;1.05;;
25015;SDS011;13029;46.286;7.488;2023-04-15T05:47:01;1.80;;;1.10;;
25015;SDS011;13029;46.286;7.488;2023-04-15T05:49:27;4.10;;;0.95;;
25015;SDS011;13029;46.286;7.488;2023-04-15T05:51:53;2.42;;;0.95;;
25015;SDS011;13029;46.286;7.488;2023-04-15T05:54:18;3.40;;;1.02;;
25015;SDS011;13029;46.286;7.488;2023-04-15T05:56:43;4.22;;;0.95;;
25015;SDS011;13029;46.286;7.488;2023-04-15T05:59:09;3.70;;;0.95;;
25015;SDS011;13029;46.286;7.488;2023-04-15T06:01:34;3.60;;;0.95;;
25015;SDS011;13029;46.286;7.488;2023-04-15T06:04:00;2.00;;;1.00;;
25015;SDS011;13029;46.286;7.488;2023-04-15T06:06:25;4.93;;;1.00;;
25015;SDS011;13029;46.286;7.488;2023-04-15T06:08:51;2.75;;;0.70;;
25015;SDS011;13029;46.286;7.488;2023-04-15T06:11:16;1.15;;;0.70;;
25015;SDS011;13029;46.286;7.488;2023-04-15T06:13:42;1.48;;;0.65;;
25015;SDS011;13029;46.286;7.488;2023-04-15T06:16:07;3.72;;;1.00;;
25015;SDS011;13029;46.286;7.488;2023-04-15T06:18:32;1.40;;;0.70;;
25015;SDS011;13029;46.286;7.488;2023-04-15T06:20:58;1.58;;;0.70;;
25015;SDS011;13029;46.286;7.488;2023-04-15T06:23:23;1.20;;;0.70;;
25015;SDS011;13029;46.286;7.488;2023-04-15T06:25:48;2.63;;;0.70;;
25015;SDS011;13029;46.286;7.488;2023-04-15T06:28:14;1.02;;;0.63;;
25015;SDS011;13029;46.286;7.488;2023-04-15T06:30:39;1.27;;;0.70;;
25015;SDS011;13029;46.286;7.488;2023-04-15T06:33:05;2.38;;;0.80;;
25015;SDS011;13029;46.286;7.488;2023-04-15T06:35:31;2.72;;;0.63;;
25015;SDS011;13029;46.286;7.488;2023-04-15T06:37:56;1.77;;;0.90;;
25015;SDS011;13029;46.286;7.488;2023-04-15T06:40:22;3.55;;;1.02;;
25015;SDS011;13029;46.286;7.488;2023-04-15T06:42:47;2.67;;;0.90;;
25015;SDS011;13029;46.286;7.488;2023-04-15T06:45:12;1.83;;;0.68;;
25015;SDS011;13029;46.286;7.488;2023-04-15T06:47:38;3.20;;;1.33;;
25015;SDS011;13029;46.286;7.488;2023-04-15T06:50:03;1.60;;;1.02;;
25015;SDS011;13029;46.286;7.488;2023-04-15T06:52:29;3.45;;;0.73;;
25015;SDS011;13029;46.286;7.488;2023-04-15T06:54:54;2.10;;;0.82;;
25015;SDS011;13029;46.286;7.488;2023-04-15T06:57:20;1.10;;;1.00;;
25015;SDS011;13029;46.286;7.488;2023-04-15T06:59:45;3.60;;;1.15;;
25015;SDS011;13029;46.286;7.488;2023-04-15T07:02:11;3.65;;;0.75;;
25015;SDS011;13029;46.286;7.488;2023-04-15T07:04:37;1.52;;;0.70;;
25015;SDS011;13029;46.286;7.488;2023-04-15T07:07:04;2.60;;;1.15;;
25015;SDS011;13029;46.286;7.488;2023-04-15T07:09:29;2.13;;;1.42;;
25015;SDS011;13029;46.286;7.488;2023-04-15T07:11:56;1.02;;;0.73;;
25015;SDS011;13029;46.286;7.488;2023-04-15T07:14:21;1.02;;;0.65;;
25015;SDS011;13029;46.286;7.488;2023-04-15T07:16:46;1.02;;;0.60;;
25015;SDS011;13029;46.286;7.488;2023-04-15T07:19:12;3.47;;;1.10;;
25015;SDS011;13029;46.286;7.488;2023-04-15T07:21:37;2.40;;;1.00;;
25015;SDS011;13029;46.286;7.488;2023-04-15T07:24:03;4.10;;;1.38;;
25015;SDS011;13029;46.286;7.488;2023-04-15T07:26:28;3.72;;;1.20;;
25015;SDS011;13029;46.286;7.488;2023-04-15T07:28:53;1.77;;;0.98;;
25015;SDS011;13029;46.286;7.488;2023-04-15T07:31:19;3.63;;;1.42;;
25015;SDS011;13029;46.286;7.488;2023-04-15T07:33:45;4.03;;;1.75;;
25015;SDS011;13029;46.286;7.488;2023-04-15T07:36:10;3.00;;;1.40;;
25015;SDS011;13029;46.286;7.488;2023-04-15T07:38:35;4.70;;;2.20;;
25015;SDS011;13029;46.286;7.488;2023-04-15T07:41:01;7.70;;;2.30;;
25015;SDS011;13029;46.286;7.488;2023-04-15T07:43:26;4.93;;;2.22;;
25015;SDS011;13029;46.286;7.488;2023-04-15T07:45:51;5.57;;;2.05;;
25015;SDS011;13029;46.286;7.488;2023-04-15T07:48:17;6.75;;;2.80;;
25015;SDS011;13029;46.286;7.488;2023-04-15T07:50:42;1.67;;;1.42;;
25015;SDS011;13029;46.286;7.488;2023-04-15T07:53:07;6.28;;;1.92;;
25015;SDS011;13029;46.286;7.488;2023-04-15T07:55:33;3.85;;;2.40;;
25015;SDS011;13029;46.286;7.488;2023-04-15T07:57:58;8.10;;;2.03;;
25015;SDS011;13029;46.286;7.488;2023-04-15T08:00:23;3.97;;;1.50;;
25015;SDS011;13029;46.286;7.488;2023-04-15T08:02:49;4.57;;;2.05;;
25015;SDS011;13029;46.286;7.488;2023-04-15T08:05:16;4.90;;;2.15;;
25015;SDS011;13029;46.286;7.488;2023-04-15T08:07:42;4.40;;;2.03;;
25015;SDS011;13029;46.286;7.488;2023-04-15T08:10:07;5.18;;;2.40;;
25015;SDS011;13029;46.286;7.488;2023-04-15T08:12:33;3.25;;;2.00;;
25015;SDS011;13029;46.286;7.488;2023-04-15T08:14:58;3.75;;;2.55;;
25015;SDS011;13029;46.286;7.488;2023-04-15T08:17:24;5.38;;;2.25;;
25015;SDS011;13029;46.286;7.488;2023-04-15T08:19:49;5.35;;;1.90;;
25015;SDS011;13029;46.286;7.488;2023-04-15T08:22:14;4.15;;;2.20;;
25015;SDS011;13029;46.286;7.488;2023-04-15T08:24:40;6.18;;;2.05;;
25015;SDS011;13029;46.286;7.488;2023-04-15T08:27:06;3.92;;;1.80;;
25015;SDS011;13029;46.286;7.488;2023-04-15T08:29:32;3.20;;;1.90;;
25015;SDS011;13029;46.286;7.488;2023-04-15T08:31:58;2.22;;;1.63;;
25015;SDS011;13029;46.286;7.488;2023-04-15T08:34:24;4.45;;;1.75;;
25015;SDS011;13029;46.286;7.488;2023-04-15T08:36:49;5.15;;;2.00;;
25015;SDS011;13029;46.286;7.488;2023-04-15T08:39:16;5.25;;;1.80;;
25015;SDS011;13029;46.286;7.488;2023-04-15T08:41:45;2.55;;;1.70;;
25015;SDS011;13029;46.286;7.488;2023-04-15T08:44:12;3.13;;;1.70;;
25015;SDS011;13029;46.286;7.488;2023-04-15T08:46:38;4.55;;;1.77;;
25015;SDS011;13029;46.286;7.488;2023-04-15T08:49:04;4.70;;;1.92;;
25015;SDS011;13029;46.286;7.488;2023-04-15T08:51:30;3.03;;;1.80;;
25015;SDS011;13029;46.286;7.488;2023-04-15T08:53:55;1.58;;;1.45;;
25015;SDS011;13029;46.286;7.488;2023-04-15T08:56:23;4.47;;;1.90;;
25015;SDS011;13029;46.286;7.488;2023-04-15T08:58:50;2.97;;;1.75;;
25015;SDS011;13029;46.286;7.488;2023-04-15T09:01:16;2.28;;;1.77;;
25015;SDS011;13029;46.286;7.488;2023-04-15T09:03:41;4.55;;;2.55;;
25015;SDS011;13029;46.286;7.488;2023-04-15T09:06:08;6.28;;;1.92;;
25015;SDS011;13029;46.286;7.488;2023-04-15T09:08:33;6.53;;;2.10;;
25015;SDS011;13029;46.286;7.488;2023-04-15T09:11:00;2.08;;;1.40;;
25015;SDS011;13029;46.286;7.488;2023-04-15T09:13:26;4.50;;;1.70;;
25015;SDS011;13029;46.286;7.488;2023-04-15T09:15:52;4.93;;;2.15;;
25015;SDS011;13029;46.286;7.488;2023-04-15T09:18:27;4.88;;;1.63;;
25015;SDS011;13029;46.286;7.488;2023-04-15T09:20:53;2.42;;;1.25;;
25015;SDS011;13029;46.286;7.488;2023-04-15T09:23:19;2.03;;;1.30;;
25015;SDS011;13029;46.286;7.488;2023-04-15T09:25:45;1.88;;;1.20;;
25015;SDS011;13029;46.286;7.488;2023-04-15T09:28:10;1.85;;;1.08;;
25015;SDS011;13029;46.286;7.488;2023-04-15T09:30:36;1.40;;;1.15;;
25015;SDS011;13029;46.286;7.488;2023-04-15T09:33:02;1.98;;;0.90;;
25015;SDS011;13029;46.286;7.488;2023-04-15T09:35:32;2.10;;;1.05;;
25015;SDS011;13029;46.286;7.488;2023-04-15T09:38:03;2.13;;;1.13;;
25015;SDS011;13029;46.286;7.488;2023-04-15T09:40:39;6.28;;;2.13;;
25015;SDS011;13029;46.286;7.488;2023-04-15T09:43:06;3.70;;;2.00;;
25015;SDS011;13029;46.286;7.488;2023-04-15T09:45:32;3.08;;;1.50;;
25015;SDS011;13029;46.286;7.488;2023-04-15T09:47:59;5.72;;;1.63;;
25015;SDS011;13029;46.286;7.488;2023-04-15T09:53:08;4.47;;;1.20;;
25015;SDS011;13029;46.286;7.488;2023-04-15T09:55:39;2.10;;;1.20;;
25015;SDS011;13029;46.286;7.488;2023-04-15T09:58:16;1.35;;;1.10;;
25015;SDS011;13029;46.286;7.488;2023-04-15T10:00:51;2.55;;;1.10;;
25015;SDS011;13029;46.286;7.488;2023-04-15T10:03:21;1.27;;;1.00;;
25015;SDS011;13029;46.286;7.488;2023-04-15T10:05:50;4.55;;;1.63;;
25015;SDS011;13029;46.286;7.488;2023-04-15T10:08:17;2.58;;;1.35;;
25015;SDS011;13029;46.286;7.488;2023-04-15T10:10:44;2.03;;;1.20;;
25015;SDS011;13029;46.286;7.488;2023-04-15T10:13:18;1.15;;;0.95;;
25015;SDS011;13029;46.286;7.488;2023-04-15T10:15:57;1.92;;;1.33;;
25015;SDS011;13029;46.286;7.488;2023-04-15T10:18:25;2.47;;;1.27;;
25015;SDS011;13029;46.286;7.488;2023-04-15T10:20:51;1.90;;;1.40;;
25015;SDS011;13029;46.286;7.488;2023-04-15T10:23:18;2.17;;;1.40;;
25015;SDS011;13029;46.286;7.488;2023-04-15T10:25:45;2.70;;;1.55;;
25015;SDS011;13029;46.286;7.488;2023-04-15T10:28:10;2.05;;;1.13;;
25015;SDS011;13029;46.286;7.488;2023-04-15T10:30:35;2.20;;;1.40;;
25015;SDS011;13029;46.286;7.488;2023-04-15T10:33:01;2.72;;;1.25;;
25015;SDS011;13029;46.286;7.488;2023-04-15T10:35:28;1.73;;;1.10;;
25015;SDS011;13029;46.286;7.488;2023-04-15T10:37:54;1.45;;;1.35;;
25015;SDS011;13029;46.286;7.488;2023-04-15T10:40:23;1.90;;;1.20;;
25015;SDS011;13029;46.286;7.488;2023-04-15T10:42:55;2.20;;;1.10;;
25015;SDS011;13029;46.286;7.488;2023-04-15T10:45:21;2.20;;;0.80;;
25015;SDS011;13029;46.286;7.488;2023-04-15T10:47:51;1.50;;;0.90;;
25015;SDS011;13029;46.286;7.488;2023-04-15T10:50:19;0.60;;;0.60;;
25015;SDS011;13029;46.286;7.488;2023-04-15T10:52:45;1.30;;;0.80;;
25015;SDS011;13029;46.286;7.488;2023-04-15T10:55:15;0.65;;;0.65;;
25015;SDS011;13029;46.286;7.488;2023-04-15T10:57:48;1.58;;;1.00;;
25015;SDS011;13029;46.286;7.488;2023-04-15T11:00:17;1.10;;;0.90;;
25015;SDS011;13029;46.286;7.488;2023-04-15T11:02:53;4.35;;;1.15;;
25015;SDS011;13029;46.286;7.488;2023-04-15T11:05:47;1.88;;;1.15;;
25015;SDS011;13029;46.286;7.488;2023-04-15T11:08:08;1.80;;;1.10;;
25015;SDS011;13029;46.286;7.488;2023-04-15T11:13:01;2.90;;;1.10;;
25015;SDS011;13029;46.286;7.488;2023-04-15T11:15:39;1.60;;;0.95;;
25015;SDS011;13029;46.286;7.488;2023-04-15T11:20:35;2.10;;;1.00;;
25015;SDS011;13029;46.286;7.488;2023-04-15T11:23:01;2.15;;;1.45;;
25015;SDS011;13029;46.286;7.488;2023-04-15T11:25:27;1.50;;;1.17;;
25015;SDS011;13029;46.286;7.488;2023-04-15T11:27:54;1.13;;;1.02;;
25015;SDS011;13029;46.286;7.488;2023-04-15T11:32:50;7.32;;;1.23;;
25015;SDS011;13029;46.286;7.488;2023-04-15T11:35:16;1.42;;;1.33;;
25015;SDS011;13029;46.286;7.488;2023-04-15T11:37:42;0.90;;;0.90;;
25015;SDS011;13029;46.286;7.488;2023-04-15T11:40:09;1.33;;;1.00;;
25015;SDS011;13029;46.286;7.488;2023-04-15T11:42:34;1.48;;;1.10;;
25015;SDS011;13029;46.286;7.488;2023-04-15T11:45:09;0.90;;;0.90;;
25015;SDS011;13029;46.286;7.488;2023-04-15T11:47:36;1.40;;;1.10;;
25015;SDS011;13029;46.286;7.488;2023-04-15T11:50:15;1.30;;;0.93;;
25015;SDS011;13029;46.286;7.488;2023-04-15T11:55:19;2.17;;;1.10;;
25015;SDS011;13029;46.286;7.488;2023-04-15T11:57:45;1.00;;;0.90;;
25015;SDS011;13029;46.286;7.488;2023-04-15T12:00:10;1.00;;;0.85;;
25015;SDS011;13029;46.286;7.488;2023-04-15T12:02:36;2.13;;;1.20;;
25015;SDS011;13029;46.286;7.488;2023-04-15T12:05:03;2.00;;;1.20;;
25015;SDS011;13029;46.286;7.488;2023-04-15T12:07:29;2.70;;;1.20;;
25015;SDS011;13029;46.286;7.488;2023-04-15T12:09:54;1.55;;;0.90;;
25015;SDS011;13029;46.286;7.488;2023-04-15T12:12:20;2.13;;;1.30;;
25015;SDS011;13029;46.286;7.488;2023-04-15T12:14:46;3.85;;;1.58;;
25015;SDS011;13029;46.286;7.488;2023-04-15T12:17:11;3.22;;;0.85;;
25015;SDS011;13029;46.286;7.488;2023-04-15T12:19:40;1.05;;;0.50;;
25015;SDS011;13029;46.286;7.488;2023-04-15T12:22:13;0.90;;;0.90;;
25015;SDS011;13029;46.286;7.488;2023-04-15T12:24:41;1.35;;;1.05;;
25015;SDS011;13029;46.286;7.488;2023-04-15T12:27:09;1.48;;;0.70;;
25015;SDS011;13029;46.286;7.488;2023-04-15T12:29:35;0.50;;;0.50;;
25015;SDS011;13029;46.286;7.488;2023-04-15T12:32:06;0.32;;;0.30;;
25015;SDS011;13029;46.286;7.488;2023-04-15T12:34:39;2.28;;;0.60;;
25015;SDS011;13029;46.286;7.488;2023-04-15T12:39:40;0.70;;;0.70;;
25015;SDS011;13029;46.286;7.488;2023-04-15T12:42:07;1.67;;;0.82;;
25015;SDS011;13029;46.286;7.488;2023-04-15T12:44:33;1.25;;;0.80;;
25015;SDS011;13029;46.286;7.488;2023-04-15T12:46:59;0.90;;;0.70;;
25015;SDS011;13029;46.286;7.488;2023-04-15T12:49:25;0.70;;;0.70;;
25015;SDS011;13029;46.286;7.488;2023-04-15T12:51:51;0.57;;;0.57;;
25015;SDS011;13029;46.286;7.488;2023-04-15T12:54:18;0.90;;;0.57;;
25015;SDS011;13029;46.286;7.488;2023-04-15T12:56:45;0.70;;;0.50;;
25015;SDS011;13029;46.286;7.488;2023-04-15T12:59:10;1.20;;;0.60;;
25015;SDS011;13029;46.286;7.488;2023-04-15T13:01:36;0.50;;;0.50;;
25015;SDS011;13029;46.286;7.488;2023-04-15T13:04:02;0.95;;;0.50;;
25015;SDS011;13029;46.286;7.488;2023-04-15T13:06:27;0.93;;;0.40;;
25015;SDS011;13029;46.286;7.488;2023-04-15T13:08:53;0.85;;;0.40;;
25015;SDS011;13029;46.286;7.488;2023-04-15T13:11:19;0.55;;;0.47;;
25015;SDS011;13029;46.286;7.488;2023-04-15T13:13:46;0.50;;;0.50;;
25015;SDS011;13029;46.286;7.488;2023-04-15T13:16:11;0.95;;;0.70;;
25015;SDS011;13029;46.286;7.488;2023-04-15T13:18:37;0.60;;;0.50;;
25015;SDS011;13029;46.286;7.488;2023-04-15T13:21:02;2.17;;;0.63;;
25015;SDS011;13029;46.286;7.488;2023-04-15T13:23:28;0.40;;;0.30;;
25015;SDS011;13029;46.286;7.488;2023-04-15T13:25:53;0.30;;;0.30;;
25015;SDS011;13029;46.286;7.488;2023-04-15T13:28:18;0.20;;;0.20;;
25015;SDS011;13029;46.286;7.488;2023-04-15T13:30:44;0.40;;;0.30;;
25015;SDS011;13029;46.286;7.488;2023-04-15T13:33:10;0.77;;;0.40;;
25015;SDS011;13029;46.286;7.488;2023-04-15T13:35:36;0.45;;;0.45;;
25015;SDS011;13029;46.286;7.488;2023-04-15T13:38:01;0.30;;;0.30;;
25015;SDS011;13029;46.286;7.488;2023-04-15T13:40:26;2.97;;;0.30;;
25015;SDS011;13029;46.286;7.488;2023-04-15T13:42:52;0.50;;;0.25;;
25015;SDS011;13029;46.286;7.488;2023-04-15T13:45:17;0.55;;;0.30;;
25015;SDS011;13029;46.286;7.488;2023-04-15T13:47:43;0.47;;;0.47;;
25015;SDS011;13029;46.286;7.488;2023-04-15T13:50:08;0.52;;;0.52;;
25015;SDS011;13029;46.286;7.488;2023-04-15T13:52:34;2.55;;;0.70;;
25015;SDS011;13029;46.286;7.488;2023-04-15T13:54:59;2.08;;;0.75;;
25015;SDS011;13029;46.286;7.488;2023-04-15T13:57:25;2.83;;;0.50;;
25015;SDS011;13029;46.286;7.488;2023-04-15T13:59:50;1.38;;;0.50;;
25015;SDS011;13029;46.286;7.488;2023-04-15T14:02:16;0.52;;;0.30;;
25015;SDS011;13029;46.286;7.488;2023-04-15T14:04:41;1.05;;;0.60;;
25015;SDS011;13029;46.286;7.488;2023-04-15T14:07:06;0.88;;;0.82;;
25015;SDS011;13029;46.286;7.488;2023-04-15T14:09:32;1.48;;;0.90;;
25015;SDS011;13029;46.286;7.488;2023-04-15T14:11:57;0.80;;;0.63;;
25015;SDS011;13029;46.286;7.488;2023-04-15T14:14:24;3.03;;;1.70;;
25015;SDS011;13029;46.286;7.488;2023-04-15T14:16:49;1.65;;;0.90;;
25015;SDS011;13029;46.286;7.488;2023-04-15T14:19:15;1.48;;;0.73;;
25015;SDS011;13029;46.286;7.488;2023-04-15T14:21:40;1.75;;;0.65;;
25015;SDS011;13029;46.286;7.488;2023-04-15T14:24:05;1.58;;;0.80;;
25015;SDS011;13029;46.286;7.488;2023-04-15T14:26:31;1.63;;;0.75;;
25015;SDS011;13029;46.286;7.488;2023-04-15T14:28:56;1.27;;;0.80;;
25015;SDS011;13029;46.286;7.488;2023-04-15T14:31:21;2.60;;;1.13;;
25015;SDS011;13029;46.286;7.488;2023-04-15T14:33:47;2.45;;;0.55;;
25015;SDS011;13029;46.286;7.488;2023-04-15T14:36:12;0.70;;;0.50;;
25015;SDS011;13029;46.286;7.488;2023-04-15T14:38:37;0.82;;;0.40;;
25015;SDS011;13029;46.286;7.488;2023-04-15T14:41:04;0.40;;;0.40;;
25015;SDS011;13029;46.286;7.488;2023-04-15T14:43:30;0.70;;;0.32;;
25015;SDS011;13029;46.286;7.488;2023-04-15T14:45:56;0.40;;;0.40;;
25015;SDS011;13029;46.286;7.488;2023-04-15T14:48:21;1.95;;;0.30;;
25015;SDS011;13029;46.286;7.488;2023-04-15T14:50:46;1.38;;;0.40;;
25015;SDS011;13029;46.286;7.488;2023-04-15T14:53:12;0.95;;;0.30;;
25015;SDS011;13029;46.286;7.488;2023-04-15T14:55:37;0.30;;;0.30;;
25015;SDS011;13029;46.286;7.488;2023-04-15T14:58:03;0.32;;;0.32;;